createdAt,value
2022-10-22T00:02:04.754Z,100535.80
2022-10-22T00:04:35.641Z,100538.60
2022-10-22T00:07:05.787Z,100541.60
2022-10-22T00:09:35.493Z,100542.80
2022-10-22T00:12:04.969Z,100542.40
2022-10-22T00:14:33.689Z,100548.00
2022-10-22T00:17:02.373Z,100551.60
2022-10-22T00:19:30.957Z,100555.60
2022-10-22T00:22:00.159Z,100556.20
2022-10-22T00:24:28.639Z,100553.40
2022-10-22T00:26:57.530Z,100549.20
2022-10-22T00:29:27.653Z,100546.20
2022-10-22T00:31:57.087Z,100542.60
2022-10-22T00:34:26.804Z,100547.00
2022-10-22T00:36:56.059Z,100545.40
2022-10-22T00:39:27.660Z,100545.80
2022-10-22T00:41:58.764Z,100551.60
2022-10-22T00:45:11.027Z,100551.00
2022-10-22T00:48:01.573Z,100546.80
2022-10-22T00:50:58.477Z,100534.20
2022-10-22T00:53:50.966Z,100530.00
2022-10-22T00:56:21.028Z,100536.60
2022-10-22T00:58:58.126Z,100541.80
2022-10-22T01:01:30.940Z,100546.60
2022-10-22T01:04:00.458Z,100549.00
2022-10-22T01:06:33.651Z,100558.60
2022-10-22T01:09:09.658Z,100555.60
2022-10-22T01:12:12.907Z,100537.60
2022-10-22T01:15:16.003Z,100509.40
2022-10-22T01:17:56.363Z,100513.60
2022-10-22T01:21:08.981Z,100518.80
2022-10-22T01:24:02.479Z,100529.60
2022-10-22T01:26:58.330Z,100532.40
2022-10-22T01:29:51.941Z,100533.00
2022-10-22T01:32:25.508Z,100536.80
2022-10-22T01:35:07.283Z,100541.60
2022-10-22T01:37:44.421Z,100546.00
2022-10-22T01:40:15.677Z,100548.80
2022-10-22T01:43:03.147Z,100552.80
2022-10-22T01:45:47.449Z,100545.80
2022-10-22T01:48:53.410Z,100539.60
2022-10-22T01:51:41.871Z,100534.00
2022-10-22T01:54:40.858Z,100525.40
2022-10-22T01:57:48.895Z,100522.00
2022-10-22T02:00:20.366Z,100517.20
2022-10-22T02:03:19.815Z,100514.60
2022-10-22T02:05:59.992Z,100514.00
2022-10-22T02:08:33.026Z,100518.00
2022-10-22T02:11:03.758Z,100523.20
2022-10-22T02:13:40.175Z,100536.40
2022-10-22T02:16:14.394Z,100537.60
2022-10-22T02:18:49.285Z,100535.80
2022-10-22T02:21:18.133Z,100529.60
2022-10-22T02:23:47.518Z,100528.80
2022-10-22T02:26:36.174Z,100529.00
2022-10-22T02:29:12.071Z,100531.80
2022-10-22T02:31:45.016Z,100533.20
2022-10-22T02:34:21.694Z,100538.80
2022-10-22T02:36:52.507Z,100540.20
2022-10-22T02:39:22.347Z,100538.00
2022-10-22T02:41:51.334Z,100537.60
2022-10-22T02:44:23.043Z,100546.20
2022-10-22T02:46:52.501Z,100547.40
2022-10-22T02:49:21.085Z,100549.20
2022-10-22T02:51:49.567Z,100550.80
2022-10-22T02:54:18.059Z,100546.00
2022-10-22T02:56:46.532Z,100536.40
2022-10-22T02:59:15.216Z,100541.20
2022-10-22T03:01:43.902Z,100545.00
2022-10-22T03:04:12.383Z,100545.00
2022-10-22T03:06:44.244Z,100539.40
2022-10-22T03:09:12.730Z,100536.80
2022-10-22T03:11:41.429Z,100534.60
2022-10-22T03:14:10.006Z,100538.60
2022-10-22T03:16:38.693Z,100547.80
2022-10-22T03:19:07.068Z,100549.60
2022-10-22T03:21:54.082Z,100551.60
2022-10-22T03:24:47.858Z,100554.40
2022-10-22T03:27:18.653Z,100551.80
2022-10-22T03:29:47.688Z,100546.20
2022-10-22T03:32:16.067Z,100549.00
2022-10-22T03:34:44.855Z,100546.40
2022-10-22T03:37:13.754Z,100542.00
2022-10-22T03:39:42.230Z,100536.60
2022-10-22T03:42:10.916Z,100536.40
2022-10-22T03:44:40.697Z,100535.80
2022-10-22T03:47:09.829Z,100531.20
2022-10-22T03:49:38.306Z,100535.00
2022-10-22T03:52:13.995Z,100533.20
2022-10-22T03:54:43.362Z,100537.20
2022-10-22T03:57:12.355Z,100544.40
2022-10-22T03:59:44.808Z,100547.20
2022-10-22T04:02:14.393Z,100547.00
2022-10-22T04:04:42.818Z,100549.60
2022-10-22T04:07:11.197Z,100544.00
2022-10-22T04:09:39.476Z,100546.60
2022-10-22T04:12:09.729Z,100548.00
2022-10-22T04:14:38.080Z,100540.40
2022-10-22T04:17:06.561Z,100539.00
2022-10-22T04:19:35.248Z,100535.80
2022-10-22T04:22:03.743Z,100539.60
2022-10-22T04:24:32.531Z,100539.20
2022-10-22T04:27:01.211Z,100544.60
2022-10-22T04:29:29.688Z,100547.20
2022-10-22T04:31:58.169Z,100551.80
2022-10-22T04:34:30.344Z,100562.00
2022-10-22T04:36:58.819Z,100560.60
2022-10-22T04:39:27.322Z,100558.60
2022-10-22T04:41:55.987Z,100555.00
2022-10-22T04:44:24.470Z,100559.20
2022-10-22T04:46:52.953Z,100562.60
2022-10-22T04:49:21.331Z,100568.80
2022-10-22T04:51:49.816Z,100565.80
2022-10-22T04:54:18.295Z,100567.60
2022-10-22T04:56:46.778Z,100565.80
2022-10-22T04:59:15.157Z,100564.80
2022-10-22T05:01:45.420Z,100557.60
2022-10-22T05:04:17.195Z,100553.40
2022-10-22T05:06:46.251Z,100554.00
2022-10-22T05:09:20.142Z,100562.00
2022-10-22T05:11:51.991Z,100558.80
2022-10-22T05:14:25.224Z,100559.00
2022-10-22T05:16:54.204Z,100560.60
2022-10-22T05:19:29.686Z,100563.60
2022-10-22T05:22:01.869Z,100566.60
2022-10-22T05:24:33.189Z,100569.80
2022-10-22T05:27:01.844Z,100565.40
2022-10-22T05:29:30.637Z,100565.40
2022-10-22T05:31:59.322Z,100566.00
2022-10-22T05:34:28.109Z,100573.20
2022-10-22T05:36:56.966Z,100577.00
2022-10-22T05:39:25.585Z,100577.40
2022-10-22T05:41:54.372Z,100578.60
2022-10-22T05:44:22.885Z,100588.60
2022-10-22T05:46:52.053Z,100588.20
2022-10-22T05:49:21.049Z,100594.00
2022-10-22T05:51:51.925Z,100601.00
2022-10-22T05:54:22.736Z,100607.60
2022-10-22T05:56:51.613Z,100610.00
2022-10-22T05:59:20.197Z,100603.80
2022-10-22T06:01:49.059Z,100605.20
2022-10-22T06:04:18.400Z,100600.60
2022-10-22T06:06:53.355Z,100595.60
2022-10-22T06:12:10.774Z,100610.40
2022-10-22T06:14:39.727Z,100611.00
2022-10-22T06:17:09.870Z,100607.00
2022-10-22T06:19:39.082Z,100607.60
2022-10-22T06:22:08.382Z,100613.80
2022-10-22T06:24:39.379Z,100618.00
2022-10-22T06:27:09.238Z,100620.00
2022-10-22T06:29:37.942Z,100630.20
2022-10-22T06:32:06.615Z,100621.20
2022-10-22T06:34:35.301Z,100615.20
2022-10-22T06:37:04.041Z,100621.80
2022-10-22T06:39:32.774Z,100624.00
2022-10-22T06:42:01.461Z,100629.20
2022-10-22T06:44:36.086Z,100632.20
2022-10-22T06:47:04.773Z,100635.00
2022-10-22T06:49:33.573Z,100635.60
2022-10-22T06:52:02.147Z,100632.20
2022-10-22T06:54:30.630Z,100634.20
2022-10-22T06:57:00.034Z,100641.40
2022-10-22T06:59:29.028Z,100642.40
2022-10-22T07:01:57.508Z,100650.40
2022-10-22T07:04:26.327Z,100648.20
2022-10-22T07:06:56.622Z,100650.60
2022-10-22T07:09:25.108Z,100648.40
2022-10-22T07:11:53.796Z,100653.40
2022-10-22T07:14:22.890Z,100654.20
2022-10-22T07:16:51.269Z,100653.60
2022-10-22T07:19:19.864Z,100647.00
2022-10-22T07:21:48.335Z,100656.20
2022-10-22T07:24:16.816Z,100661.60
2022-10-22T07:26:45.301Z,100655.80
2022-10-22T07:29:15.729Z,100660.40
2022-10-22T07:31:44.480Z,100655.40
2022-10-22T07:34:13.136Z,100653.20
2022-10-22T07:36:41.690Z,100654.00
2022-10-22T07:39:10.372Z,100661.00
2022-10-22T07:41:39.073Z,100656.00
2022-10-22T07:44:07.651Z,100654.60
2022-10-22T07:46:36.126Z,100652.80
2022-10-22T07:49:04.708Z,100650.80
2022-10-22T07:51:33.292Z,100663.80
2022-10-22T07:54:01.980Z,100664.40
2022-10-22T07:56:30.667Z,100668.00
2022-10-22T07:58:59.203Z,100671.40
2022-10-22T08:01:27.770Z,100675.80
2022-10-22T08:03:56.829Z,100674.80
2022-10-22T08:06:25.618Z,100679.40
2022-10-22T08:08:54.145Z,100685.20
2022-10-22T08:11:23.199Z,100682.00
2022-10-22T08:13:51.885Z,100692.40
2022-10-22T08:16:21.205Z,100696.00
2022-10-22T08:18:51.716Z,100701.20
2022-10-22T08:21:21.121Z,100701.40
2022-10-22T08:23:50.267Z,100700.00
2022-10-22T08:26:20.234Z,100696.60
2022-10-22T08:28:49.185Z,100698.60
2022-10-22T08:31:18.748Z,100707.60
2022-10-22T08:33:48.035Z,100709.80
2022-10-22T08:36:17.221Z,100715.60
2022-10-22T08:38:46.546Z,100712.20
2022-10-22T08:41:22.492Z,100713.80
2022-10-22T08:44:34.392Z,100715.80
2022-10-22T08:47:33.607Z,100717.20
2022-10-22T08:50:03.003Z,100718.60
2022-10-22T08:52:34.171Z,100711.80
2022-10-22T08:55:03.961Z,100708.00
2022-10-22T08:58:06.234Z,100710.20
2022-10-22T09:00:47.243Z,100720.20
2022-10-22T09:03:49.793Z,100721.20
2022-10-22T09:06:26.250Z,100723.80
2022-10-22T09:08:57.670Z,100724.20
2022-10-22T09:11:34.279Z,100724.40
2022-10-22T09:14:04.669Z,100727.00
2022-10-22T09:16:36.897Z,100736.20
2022-10-22T09:19:14.886Z,100734.00
2022-10-22T09:21:48.330Z,100735.80
2022-10-22T09:24:42.136Z,100734.40
2022-10-22T09:27:22.028Z,100739.80
2022-10-22T09:29:51.420Z,100740.00
2022-10-22T09:32:21.124Z,100737.60
2022-10-22T09:34:51.035Z,100739.00
2022-10-22T09:37:29.075Z,100737.00
2022-10-22T09:40:04.201Z,100740.80
2022-10-22T09:42:35.179Z,100739.60
2022-10-22T09:45:04.481Z,100741.20
2022-10-22T09:48:01.006Z,100741.00
2022-10-22T09:50:45.620Z,100749.20
2022-10-22T09:53:29.976Z,100744.80
2022-10-22T09:56:02.154Z,100740.00
2022-10-22T09:58:42.708Z,100733.60
2022-10-22T10:01:20.896Z,100731.60
2022-10-22T10:03:50.732Z,100735.60
2022-10-22T10:06:22.359Z,100730.60
2022-10-22T10:08:51.157Z,100727.80
2022-10-22T10:11:33.381Z,100728.20
2022-10-22T10:14:10.362Z,100730.00
2022-10-22T10:17:27.178Z,100735.60
2022-10-22T10:20:32.832Z,100738.40
2022-10-22T10:23:48.261Z,100736.80
2022-10-22T10:26:23.112Z,100739.60
2022-10-22T10:29:12.825Z,100736.00
2022-10-22T10:32:07.422Z,100732.60
2022-10-22T10:35:09.593Z,100739.60
2022-10-22T10:38:11.866Z,100741.00
2022-10-22T10:40:53.153Z,100736.60
2022-10-22T10:43:49.382Z,100736.00
2022-10-22T10:46:38.323Z,100727.00
2022-10-22T10:49:23.783Z,100724.20
2022-10-22T10:52:27.684Z,100725.00
2022-10-22T10:55:29.192Z,100727.60
2022-10-22T10:58:25.938Z,100735.00
2022-10-22T11:01:34.975Z,100737.00
2022-10-22T11:04:24.958Z,100734.20
2022-10-22T11:07:10.756Z,100733.60
2022-10-22T11:10:34.010Z,100739.40
2022-10-22T11:13:48.890Z,100742.20
2022-10-22T11:16:45.834Z,100734.60
2022-10-22T11:20:13.093Z,100731.80
2022-10-22T11:23:24.932Z,100735.40
2022-10-22T11:25:53.706Z,100728.80
2022-10-22T11:28:52.901Z,100731.20
2022-10-22T11:31:25.667Z,100728.60
2022-10-22T11:34:35.329Z,100723.80
2022-10-22T11:37:08.992Z,100729.00
2022-10-22T11:39:54.613Z,100733.00
2022-10-22T11:42:47.014Z,100737.20
2022-10-22T11:45:15.638Z,100733.40
2022-10-22T11:48:10.022Z,100734.60
2022-10-22T11:50:41.570Z,100737.40
2022-10-22T11:53:12.832Z,100735.20
2022-10-22T11:55:48.700Z,100734.40
2022-10-22T11:58:29.446Z,100737.80
2022-10-22T12:01:10.316Z,100736.80
2022-10-22T12:03:44.951Z,100741.60
2022-10-22T12:06:13.629Z,100743.60
2022-10-22T12:08:54.845Z,100744.80
2022-10-22T12:11:27.284Z,100742.40
2022-10-22T12:14:29.872Z,100746.60
2022-10-22T12:17:03.277Z,100746.00
2022-10-22T12:19:38.787Z,100744.80
2022-10-22T12:22:10.391Z,100746.00
2022-10-22T12:24:44.961Z,100746.20
2022-10-22T12:27:24.241Z,100748.60
2022-10-22T12:30:01.738Z,100744.00
2022-10-22T12:32:43.329Z,100747.60
2022-10-22T12:35:25.735Z,100738.20
2022-10-22T12:38:02.006Z,100737.80
2022-10-22T12:40:35.992Z,100734.60
2022-10-22T12:43:16.000Z,100733.40
2022-10-22T12:45:47.782Z,100731.80
2022-10-22T12:48:46.493Z,100725.80
2022-10-22T12:51:20.724Z,100723.00
2022-10-22T12:53:53.621Z,100728.00
2022-10-22T12:56:33.571Z,100728.40
2022-10-22T12:59:25.288Z,100727.00
2022-10-22T13:01:55.141Z,100731.20
2022-10-22T13:04:27.051Z,100730.20
2022-10-22T13:07:16.944Z,100723.80
2022-10-22T13:09:56.578Z,100726.60
2022-10-22T13:12:28.077Z,100724.20
2022-10-22T13:14:56.613Z,100726.80
2022-10-22T13:17:41.733Z,100725.60
2022-10-22T13:20:28.717Z,100728.80
2022-10-22T13:23:06.517Z,100725.60
2022-10-22T13:25:40.821Z,100730.40
2022-10-22T13:28:15.447Z,100735.20
2022-10-22T13:31:01.070Z,100737.40
2022-10-22T13:33:45.999Z,100737.60
2022-10-22T13:36:18.514Z,100738.80
2022-10-22T13:38:47.264Z,100744.40
2022-10-22T13:41:33.898Z,100746.60
2022-10-22T13:44:02.660Z,100748.60
2022-10-22T13:46:31.891Z,100748.80
2022-10-22T13:49:00.751Z,100750.80
2022-10-22T13:51:35.536Z,100754.00
2022-10-22T13:54:13.122Z,100755.80
2022-10-22T13:56:41.658Z,100757.00
2022-10-22T13:59:11.203Z,100756.00
2022-10-22T14:01:40.768Z,100752.20
2022-10-22T14:04:15.406Z,100753.20
2022-10-22T14:06:44.194Z,100756.60
2022-10-22T14:09:16.644Z,100756.20
2022-10-22T14:11:45.269Z,100757.80
2022-10-22T14:14:17.489Z,100757.80
2022-10-22T14:16:46.718Z,100761.00
2022-10-22T14:19:17.802Z,100765.20
2022-10-22T14:21:46.594Z,100766.80
2022-10-22T14:24:15.749Z,100769.80
2022-10-22T14:26:44.347Z,100769.20
2022-10-22T14:29:12.917Z,100774.20
2022-10-22T14:31:44.721Z,100772.60
2022-10-22T14:34:17.027Z,100771.00
2022-10-22T14:36:45.532Z,100774.60
2022-10-22T14:39:14.520Z,100780.40
2022-10-22T14:41:43.417Z,100785.20
2022-10-22T14:44:14.530Z,100785.20
2022-10-22T14:46:44.618Z,100786.20
2022-10-22T14:49:13.778Z,100793.40
2022-10-22T14:51:42.367Z,100796.20
2022-10-22T14:54:11.160Z,100794.40
2022-10-22T14:56:39.747Z,100794.00
2022-10-22T14:59:08.967Z,100797.40
2022-10-22T15:01:39.595Z,100795.40
2022-10-22T15:04:08.051Z,100803.40
2022-10-22T15:06:36.541Z,100808.20
2022-10-22T15:09:04.961Z,100808.80
2022-10-22T15:11:33.700Z,100811.20
2022-10-22T15:14:02.074Z,100813.20
2022-10-22T15:16:30.875Z,100818.20
2022-10-22T15:19:00.175Z,100816.00
2022-10-22T15:21:28.898Z,100821.00
2022-10-22T15:23:57.751Z,100824.20
2022-10-22T15:26:26.544Z,100825.00
2022-10-22T15:28:55.432Z,100826.00
2022-10-22T15:32:03.340Z,100827.20
2022-10-22T15:34:35.541Z,100829.60
2022-10-22T15:37:08.465Z,100829.00
2022-10-22T15:39:41.284Z,100829.60
2022-10-22T15:42:10.477Z,100834.80
2022-10-22T15:44:40.289Z,100834.20
2022-10-22T15:47:09.402Z,100839.20
2022-10-22T15:49:40.019Z,100842.60
2022-10-22T15:52:09.419Z,100842.80
2022-10-22T15:54:37.908Z,100848.80
2022-10-22T15:57:08.962Z,100853.80
2022-10-22T15:59:37.768Z,100853.20
2022-10-22T16:02:07.649Z,100859.20
2022-10-22T16:04:36.144Z,100859.00
2022-10-22T16:07:04.634Z,100861.80
2022-10-22T16:09:33.297Z,100862.40
2022-10-22T16:12:02.336Z,100864.40
2022-10-22T16:14:30.956Z,100873.20
2022-10-22T16:17:00.084Z,100873.80
2022-10-22T16:19:28.967Z,100876.40
2022-10-22T16:21:59.908Z,100881.00
2022-10-22T16:24:28.505Z,100885.60
2022-10-22T16:26:57.182Z,100887.80
2022-10-22T16:29:25.974Z,100889.00
2022-10-22T16:31:54.554Z,100890.20
2022-10-22T16:34:23.281Z,100893.40
2022-10-22T16:36:53.839Z,100896.60
2022-10-22T16:39:24.045Z,100893.00
2022-10-22T16:41:52.987Z,100893.40
2022-10-22T16:44:21.672Z,100895.20
2022-10-22T16:46:50.872Z,100902.00
2022-10-22T16:49:19.456Z,100908.60
2022-10-22T16:51:48.044Z,100908.20
2022-10-22T16:54:17.445Z,100907.80
2022-10-22T16:56:46.343Z,100911.60
2022-10-22T16:59:15.042Z,100915.20
2022-10-22T17:01:43.779Z,100916.20
2022-10-22T17:04:12.830Z,100922.20
2022-10-22T17:06:41.287Z,100926.00
2022-10-22T17:09:11.033Z,100920.00
2022-10-22T17:11:42.491Z,100924.00
2022-10-22T17:14:14.006Z,100921.80
2022-10-22T17:16:43.209Z,100920.60
2022-10-22T17:19:16.119Z,100920.40
2022-10-22T17:21:44.776Z,100930.60
2022-10-22T17:24:13.565Z,100930.80
2022-10-22T17:26:42.253Z,100932.00
2022-10-22T17:29:12.469Z,100933.60
2022-10-22T17:31:41.790Z,100937.00
2022-10-22T17:34:16.684Z,100941.20
2022-10-22T17:36:45.912Z,100948.20
2022-10-22T17:39:18.878Z,100949.80
2022-10-22T17:41:47.582Z,100952.40
2022-10-22T17:44:16.999Z,100951.60
2022-10-22T17:46:49.916Z,100957.80
2022-10-22T17:49:21.017Z,100962.60
2022-10-22T17:51:49.762Z,100963.60
2022-10-22T17:54:18.389Z,100966.60
2022-10-22T17:56:47.285Z,100972.20
2022-10-22T17:59:17.319Z,100980.40
2022-10-22T18:01:47.866Z,100984.40
2022-10-22T18:04:20.305Z,100988.60
2022-10-22T18:06:49.781Z,100983.80
2022-10-22T18:09:19.522Z,100985.40
2022-10-22T18:11:54.337Z,100985.80
2022-10-22T18:14:23.973Z,100990.60
2022-10-22T18:16:53.181Z,100994.40
2022-10-22T18:19:24.877Z,100990.00
2022-10-22T18:21:53.407Z,100991.20
2022-10-22T18:24:21.992Z,100993.20
2022-10-22T18:26:50.672Z,100994.00
2022-10-22T18:29:20.941Z,100996.00
2022-10-22T18:31:49.490Z,100999.20
2022-10-22T18:34:20.429Z,100994.60
2022-10-22T18:36:51.770Z,101001.40
2022-10-22T18:39:20.353Z,101006.00
2022-10-22T18:41:49.244Z,101004.60
2022-10-22T18:44:18.443Z,101007.60
2022-10-22T18:46:47.027Z,101004.00
2022-10-22T18:49:20.093Z,101006.20
2022-10-22T18:51:53.162Z,101002.20
2022-10-22T18:54:23.890Z,101006.00
2022-10-22T18:56:56.267Z,101008.80
2022-10-22T18:59:28.495Z,101013.20
2022-10-22T19:01:59.839Z,101010.20
2022-10-22T19:04:33.789Z,101009.80
2022-10-22T19:07:02.880Z,101012.40
2022-10-22T19:09:31.774Z,101002.60
2022-10-22T19:12:01.033Z,101006.80
2022-10-22T19:14:29.516Z,101012.00
2022-10-22T19:16:58.098Z,101012.60
2022-10-22T19:19:26.990Z,101016.60
2022-10-22T19:21:56.905Z,101014.60
2022-10-22T19:24:26.703Z,101015.00
2022-10-22T19:26:55.423Z,101023.00
2022-10-22T19:29:23.997Z,101024.20
2022-10-22T19:31:52.688Z,101023.20
2022-10-22T19:34:22.081Z,101021.00
2022-10-22T19:36:52.042Z,101029.40
2022-10-22T19:39:20.892Z,101028.80
2022-10-22T19:41:49.882Z,101035.20
2022-10-22T19:44:20.022Z,101039.60
2022-10-22T19:46:48.808Z,101037.00
2022-10-22T19:49:22.026Z,101037.40
2022-10-22T19:51:51.602Z,101045.40
2022-10-22T19:54:20.865Z,101045.40
2022-10-22T19:56:50.556Z,101052.80
2022-10-22T19:59:20.978Z,101046.20
2022-10-22T20:01:49.516Z,101049.20
2022-10-22T20:04:19.210Z,101050.60
2022-10-22T20:06:47.911Z,101047.80
2022-10-22T20:09:16.566Z,101050.60
2022-10-22T20:11:45.491Z,101051.40
2022-10-22T20:14:14.791Z,101049.60
2022-10-22T20:16:44.093Z,101051.60
2022-10-22T20:19:16.442Z,101062.80
2022-10-22T20:21:48.715Z,101056.00
2022-10-22T20:24:17.632Z,101058.40
2022-10-22T20:26:49.025Z,101061.60
2022-10-22T20:29:19.406Z,101060.20
2022-10-22T20:31:48.534Z,101062.20
2022-10-22T20:34:17.700Z,101068.00
2022-10-22T20:36:46.389Z,101072.20
2022-10-22T20:39:16.556Z,101068.80
2022-10-22T20:41:45.092Z,101075.80
2022-10-22T20:44:17.529Z,101072.40
2022-10-22T20:46:46.174Z,101071.40
2022-10-22T20:49:17.528Z,101068.60
2022-10-22T20:51:46.187Z,101063.00
2022-10-22T20:54:15.842Z,101068.20
2022-10-22T20:56:44.899Z,101071.20
2022-10-22T20:59:13.378Z,101074.60
2022-10-22T21:01:44.722Z,101078.40
2022-10-22T21:04:14.191Z,101078.60
2022-10-22T21:06:43.395Z,101077.40
2022-10-22T21:09:14.822Z,101079.00
2022-10-22T21:11:44.082Z,101081.60
2022-10-22T21:14:16.574Z,101080.80
2022-10-22T21:16:50.975Z,101080.00
2022-10-22T21:19:20.941Z,101081.00
2022-10-22T21:21:49.795Z,101088.80
2022-10-22T21:24:18.989Z,101090.60
2022-10-22T21:26:47.882Z,101094.60
2022-10-22T21:29:16.358Z,101095.40
2022-10-22T21:31:44.839Z,101098.80
2022-10-22T21:34:14.245Z,101100.00
2022-10-22T21:36:43.208Z,101104.40
2022-10-22T21:39:13.973Z,101096.60
2022-10-22T21:41:42.358Z,101097.60
2022-10-22T21:44:10.831Z,101098.20
2022-10-22T21:46:39.417Z,101098.40
2022-10-22T21:49:08.104Z,101100.00
2022-10-22T21:51:38.463Z,101106.80
2022-10-22T21:54:07.217Z,101107.20
2022-10-22T21:56:36.981Z,101110.80
2022-10-22T21:59:07.692Z,101112.40
2022-10-22T22:01:36.932Z,101113.00
2022-10-22T22:04:06.470Z,101117.40
2022-10-22T22:06:35.567Z,101119.60
2022-10-22T22:09:06.105Z,101119.80
2022-10-22T22:11:34.991Z,101129.20
2022-10-22T22:14:03.472Z,101128.80
2022-10-22T22:16:34.009Z,101125.60
2022-10-22T22:19:07.874Z,101122.80
2022-10-22T22:21:41.788Z,101119.00
2022-10-22T22:24:13.075Z,101122.20
2022-10-22T22:26:41.547Z,101124.80
2022-10-22T22:29:10.689Z,101121.80
2022-10-22T22:31:40.457Z,101123.60
2022-10-22T22:34:14.503Z,101123.80
2022-10-22T22:36:48.311Z,101126.80
2022-10-22T22:39:23.637Z,101131.40
2022-10-22T22:41:52.408Z,101130.60
2022-10-22T22:44:21.094Z,101130.40
2022-10-22T22:46:49.473Z,101126.00
2022-10-22T22:49:18.195Z,101134.40
2022-10-22T22:51:46.644Z,101133.20
2022-10-22T22:54:15.029Z,101131.20
2022-10-22T22:56:43.504Z,101132.60
2022-10-22T22:59:12.498Z,101133.00
2022-10-22T23:01:41.039Z,101133.20
2022-10-22T23:04:19.298Z,101138.00
2022-10-22T23:06:47.878Z,101140.60
2022-10-22T23:11:52.113Z,101141.80
2022-10-22T23:14:20.900Z,101139.80
2022-10-22T23:16:51.747Z,101133.40
2022-10-22T23:19:23.095Z,101136.60
2022-10-22T23:21:55.666Z,101138.40
2022-10-22T23:24:28.072Z,101134.80
2022-10-22T23:27:01.576Z,101129.40
2022-10-22T23:29:33.968Z,101127.60
2022-10-22T23:32:07.679Z,101115.40
2022-10-22T23:34:36.098Z,101115.00
2022-10-22T23:37:04.579Z,101111.80
2022-10-22T23:39:33.062Z,101100.20
2022-10-22T23:42:01.441Z,101102.00
2022-10-22T23:44:29.925Z,101101.40
2022-10-22T23:46:58.406Z,101100.60
2022-10-22T23:49:26.888Z,101103.60
2022-10-22T23:51:55.266Z,101103.60
2022-10-22T23:54:23.750Z,101108.60
2022-10-22T23:56:52.131Z,101109.80
2022-10-22T23:59:21.470Z,101107.40
